sensor_id;sensor_type;location;lat;lon;timestamp;P1;durP1;ratioP1;P2;durP2;ratioP2
31746;SDS011;18319;48.974;8.462;2022-09-01T00:01:00;11.55;;;10.45;;
31746;SDS011;18319;48.974;8.462;2022-09-01T00:03:34;11.13;;;10.00;;
31746;SDS011;18319;48.974;8.462;2022-09-01T00:06:01;9.90;;;9.02;;
31746;SDS011;18319;48.974;8.462;2022-09-01T00:08:34;9.88;;;9.00;;
31746;SDS011;18319;48.974;8.462;2022-09-01T00:11:00;10.43;;;9.43;;
31746;SDS011;18319;48.974;8.462;2022-09-01T00:13:27;10.23;;;9.32;;
31746;SDS011;18319;48.974;8.462;2022-09-01T00:15:57;10.05;;;9.25;;
31746;SDS011;18319;48.974;8.462;2022-09-01T00:18:24;10.50;;;9.32;;
31746;SDS011;18319;48.974;8.462;2022-09-01T00:20:52;10.40;;;9.40;;
31746;SDS011;18319;48.974;8.462;2022-09-01T00:23:23;10.23;;;9.30;;
31746;SDS011;18319;48.974;8.462;2022-09-01T00:25:50;9.68;;;8.95;;
31746;SDS011;18319;48.974;8.462;2022-09-01T00:28:17;11.35;;;10.35;;
31746;SDS011;18319;48.974;8.462;2022-09-01T00:30:43;12.93;;;11.23;;
31746;SDS011;18319;48.974;8.462;2022-09-01T00:33:10;14.77;;;11.18;;
31746;SDS011;18319;48.974;8.462;2022-09-01T00:35:37;11.88;;;10.70;;
31746;SDS011;18319;48.974;8.462;2022-09-01T00:38:05;11.23;;;10.05;;
31746;SDS011;18319;48.974;8.462;2022-09-01T00:40:32;10.05;;;9.10;;
31746;SDS011;18319;48.974;8.462;2022-09-01T00:42:59;10.70;;;9.70;;
31746;SDS011;18319;48.974;8.462;2022-09-01T00:45:26;10.27;;;9.23;;
31746;SDS011;18319;48.974;8.462;2022-09-01T00:47:54;11.48;;;10.50;;
31746;SDS011;18319;48.974;8.462;2022-09-01T00:50:22;11.02;;;10.13;;
31746;SDS011;18319;48.974;8.462;2022-09-01T00:52:50;11.20;;;10.02;;
31746;SDS011;18319;48.974;8.462;2022-09-01T00:55:22;9.75;;;8.98;;
31746;SDS011;18319;48.974;8.462;2022-09-01T00:57:52;11.45;;;10.38;;
31746;SDS011;18319;48.974;8.462;2022-09-01T01:00:20;10.93;;;9.52;;
31746;SDS011;18319;48.974;8.462;2022-09-01T01:02:49;11.60;;;10.40;;
31746;SDS011;18319;48.974;8.462;2022-09-01T01:05:19;12.88;;;10.60;;
31746;SDS011;18319;48.974;8.462;2022-09-01T01:07:47;10.93;;;9.93;;
31746;SDS011;18319;48.974;8.462;2022-09-01T01:10:16;13.02;;;11.77;;
31746;SDS011;18319;48.974;8.462;2022-09-01T01:12:49;11.32;;;10.10;;
31746;SDS011;18319;48.974;8.462;2022-09-01T01:15:17;15.45;;;10.18;;
31746;SDS011;18319;48.974;8.462;2022-09-01T01:17:44;10.70;;;9.75;;
31746;SDS011;18319;48.974;8.462;2022-09-01T01:20:11;11.15;;;10.05;;
31746;SDS011;18319;48.974;8.462;2022-09-01T01:23:02;12.70;;;10.65;;
31746;SDS011;18319;48.974;8.462;2022-09-01T01:25:38;12.25;;;11.15;;
31746;SDS011;18319;48.974;8.462;2022-09-01T01:28:09;11.48;;;10.38;;
31746;SDS011;18319;48.974;8.462;2022-09-01T01:30:39;10.95;;;9.90;;
31746;SDS011;18319;48.974;8.462;2022-09-01T01:33:08;12.00;;;10.15;;
31746;SDS011;18319;48.974;8.462;2022-09-01T01:35:35;12.95;;;10.07;;
31746;SDS011;18319;48.974;8.462;2022-09-01T01:38:02;12.25;;;9.52;;
31746;SDS011;18319;48.974;8.462;2022-09-01T01:40:41;13.00;;;10.18;;
31746;SDS011;18319;48.974;8.462;2022-09-01T01:43:14;13.57;;;10.57;;
31746;SDS011;18319;48.974;8.462;2022-09-01T01:45:47;11.77;;;10.00;;
31746;SDS011;18319;48.974;8.462;2022-09-01T01:48:16;11.13;;;10.02;;
31746;SDS011;18319;48.974;8.462;2022-09-01T01:50:48;10.52;;;9.48;;
31746;SDS011;18319;48.974;8.462;2022-09-01T01:53:16;11.35;;;10.43;;
31746;SDS011;18319;48.974;8.462;2022-09-01T01:55:47;10.57;;;9.63;;
31746;SDS011;18319;48.974;8.462;2022-09-01T01:58:15;11.38;;;10.10;;
31746;SDS011;18319;48.974;8.462;2022-09-01T02:00:43;10.20;;;9.30;;
31746;SDS011;18319;48.974;8.462;2022-09-01T02:03:11;11.25;;;10.05;;
31746;SDS011;18319;48.974;8.462;2022-09-01T02:05:41;10.45;;;9.60;;
31746;SDS011;18319;48.974;8.462;2022-09-01T02:08:08;10.05;;;9.15;;
31746;SDS011;18319;48.974;8.462;2022-09-01T02:10:38;10.70;;;9.65;;
31746;SDS011;18319;48.974;8.462;2022-09-01T02:13:09;9.80;;;8.98;;
31746;SDS011;18319;48.974;8.462;2022-09-01T02:15:41;10.00;;;9.23;;
31746;SDS011;18319;48.974;8.462;2022-09-01T02:18:09;10.73;;;9.38;;
31746;SDS011;18319;48.974;8.462;2022-09-01T02:20:39;10.95;;;10.05;;
31746;SDS011;18319;48.974;8.462;2022-09-01T02:23:06;10.88;;;9.75;;
31746;SDS011;18319;48.974;8.462;2022-09-01T02:25:34;11.40;;;10.23;;
31746;SDS011;18319;48.974;8.462;2022-09-01T02:28:02;10.02;;;9.00;;
31746;SDS011;18319;48.974;8.462;2022-09-01T02:30:34;10.95;;;9.93;;
31746;SDS011;18319;48.974;8.462;2022-09-01T02:33:09;10.70;;;9.77;;
31746;SDS011;18319;48.974;8.462;2022-09-01T02:35:36;10.65;;;9.73;;
31746;SDS011;18319;48.974;8.462;2022-09-01T02:38:03;11.32;;;10.07;;
31746;SDS011;18319;48.974;8.462;2022-09-01T02:40:31;10.98;;;9.98;;
31746;SDS011;18319;48.974;8.462;2022-09-01T02:42:58;14.30;;;10.43;;
31746;SDS011;18319;48.974;8.462;2022-09-01T02:45:26;11.27;;;9.93;;
31746;SDS011;18319;48.974;8.462;2022-09-01T02:47:56;10.57;;;9.60;;
31746;SDS011;18319;48.974;8.462;2022-09-01T02:50:24;11.43;;;10.35;;
31746;SDS011;18319;48.974;8.462;2022-09-01T02:52:53;11.50;;;10.32;;
31746;SDS011;18319;48.974;8.462;2022-09-01T02:55:20;11.75;;;10.63;;
31746;SDS011;18319;48.974;8.462;2022-09-01T02:57:48;11.43;;;10.25;;
31746;SDS011;18319;48.974;8.462;2022-09-01T03:00:20;11.40;;;9.90;;
31746;SDS011;18319;48.974;8.462;2022-09-01T03:02:57;11.50;;;10.32;;
31746;SDS011;18319;48.974;8.462;2022-09-01T03:05:25;11.70;;;10.52;;
31746;SDS011;18319;48.974;8.462;2022-09-01T03:07:54;12.93;;;10.80;;
31746;SDS011;18319;48.974;8.462;2022-09-01T03:10:24;11.73;;;10.52;;
31746;SDS011;18319;48.974;8.462;2022-09-01T03:12:57;11.25;;;10.30;;
31746;SDS011;18319;48.974;8.462;2022-09-01T03:15:25;12.95;;;11.65;;
31746;SDS011;18319;48.974;8.462;2022-09-01T03:17:54;12.45;;;11.35;;
31746;SDS011;18319;48.974;8.462;2022-09-01T03:20:23;12.88;;;11.55;;
31746;SDS011;18319;48.974;8.462;2022-09-01T03:22:49;16.23;;;11.88;;
31746;SDS011;18319;48.974;8.462;2022-09-01T03:25:17;14.30;;;10.88;;
31746;SDS011;18319;48.974;8.462;2022-09-01T03:27:45;12.98;;;11.10;;
31746;SDS011;18319;48.974;8.462;2022-09-01T03:30:12;12.40;;;11.10;;
31746;SDS011;18319;48.974;8.462;2022-09-01T03:32:40;12.45;;;11.25;;
31746;SDS011;18319;48.974;8.462;2022-09-01T03:35:07;13.27;;;11.55;;
31746;SDS011;18319;48.974;8.462;2022-09-01T03:37:35;13.10;;;10.75;;
31746;SDS011;18319;48.974;8.462;2022-09-01T03:40:04;13.70;;;12.43;;
31746;SDS011;18319;48.974;8.462;2022-09-01T03:42:33;13.88;;;11.00;;
31746;SDS011;18319;48.974;8.462;2022-09-01T03:44:59;13.43;;;12.02;;
31746;SDS011;18319;48.974;8.462;2022-09-01T03:47:27;14.50;;;12.77;;
31746;SDS011;18319;48.974;8.462;2022-09-01T03:49:54;14.95;;;13.23;;
31746;SDS011;18319;48.974;8.462;2022-09-01T03:52:22;16.33;;;13.18;;
31746;SDS011;18319;48.974;8.462;2022-09-01T03:54:51;15.23;;;13.73;;
31746;SDS011;18319;48.974;8.462;2022-09-01T03:57:18;15.07;;;13.57;;
31746;SDS011;18319;48.974;8.462;2022-09-01T03:59:45;18.20;;;15.48;;
31746;SDS011;18319;48.974;8.462;2022-09-01T04:02:11;15.77;;;13.88;;
31746;SDS011;18319;48.974;8.462;2022-09-01T04:04:39;17.83;;;14.98;;
31746;SDS011;18319;48.974;8.462;2022-09-01T04:07:05;22.50;;;16.45;;
31746;SDS011;18319;48.974;8.462;2022-09-01T04:09:32;17.48;;;15.30;;
31746;SDS011;18319;48.974;8.462;2022-09-01T04:12:02;16.42;;;14.18;;
31746;SDS011;18319;48.974;8.462;2022-09-01T04:14:30;17.25;;;15.07;;
31746;SDS011;18319;48.974;8.462;2022-09-01T04:16:57;18.23;;;14.85;;
31746;SDS011;18319;48.974;8.462;2022-09-01T04:19:41;20.30;;;15.57;;
31746;SDS011;18319;48.974;8.462;2022-09-01T04:22:08;20.33;;;16.70;;
31746;SDS011;18319;48.974;8.462;2022-09-01T04:24:37;18.83;;;14.85;;
31746;SDS011;18319;48.974;8.462;2022-09-01T04:27:07;17.88;;;15.45;;
31746;SDS011;18319;48.974;8.462;2022-09-01T04:29:34;18.83;;;16.08;;
31746;SDS011;18319;48.974;8.462;2022-09-01T04:32:02;21.05;;;16.63;;
31746;SDS011;18319;48.974;8.462;2022-09-01T04:34:31;17.35;;;15.48;;
31746;SDS011;18319;48.974;8.462;2022-09-01T04:37:02;17.88;;;16.02;;
31746;SDS011;18319;48.974;8.462;2022-09-01T04:39:32;19.20;;;16.13;;
31746;SDS011;18319;48.974;8.462;2022-09-01T04:42:00;18.52;;;16.58;;
31746;SDS011;18319;48.974;8.462;2022-09-01T04:44:30;19.77;;;16.35;;
31746;SDS011;18319;48.974;8.462;2022-09-01T04:46:56;19.45;;;16.25;;
31746;SDS011;18319;48.974;8.462;2022-09-01T04:49:24;19.15;;;16.15;;
31746;SDS011;18319;48.974;8.462;2022-09-01T04:51:51;25.92;;;16.88;;
31746;SDS011;18319;48.974;8.462;2022-09-01T04:54:19;19.95;;;16.80;;
31746;SDS011;18319;48.974;8.462;2022-09-01T04:56:47;20.63;;;16.33;;
31746;SDS011;18319;48.974;8.462;2022-09-01T04:59:16;24.15;;;16.98;;
31746;SDS011;18319;48.974;8.462;2022-09-01T05:01:46;20.45;;;15.82;;
31746;SDS011;18319;48.974;8.462;2022-09-01T05:04:15;19.40;;;17.38;;
31746;SDS011;18319;48.974;8.462;2022-09-01T05:06:43;20.30;;;16.17;;
31746;SDS011;18319;48.974;8.462;2022-09-01T05:09:13;21.90;;;16.80;;
31746;SDS011;18319;48.974;8.462;2022-09-01T05:11:41;20.52;;;16.70;;
31746;SDS011;18319;48.974;8.462;2022-09-01T05:14:09;20.80;;;16.95;;
31746;SDS011;18319;48.974;8.462;2022-09-01T05:16:37;22.45;;;18.33;;
31746;SDS011;18319;48.974;8.462;2022-09-01T05:19:07;19.60;;;16.60;;
31746;SDS011;18319;48.974;8.462;2022-09-01T05:21:39;21.15;;;16.13;;
31746;SDS011;18319;48.974;8.462;2022-09-01T05:24:09;20.02;;;17.08;;
31746;SDS011;18319;48.974;8.462;2022-09-01T05:26:39;20.35;;;17.40;;
31746;SDS011;18319;48.974;8.462;2022-09-01T05:29:08;20.05;;;17.08;;
31746;SDS011;18319;48.974;8.462;2022-09-01T05:31:38;21.58;;;16.67;;
31746;SDS011;18319;48.974;8.462;2022-09-01T05:34:07;21.13;;;17.52;;
31746;SDS011;18319;48.974;8.462;2022-09-01T05:36:35;21.80;;;17.23;;
31746;SDS011;18319;48.974;8.462;2022-09-01T05:39:04;18.50;;;16.50;;
31746;SDS011;18319;48.974;8.462;2022-09-01T05:41:31;18.98;;;16.63;;
31746;SDS011;18319;48.974;8.462;2022-09-01T05:44:00;20.38;;;16.98;;
31746;SDS011;18319;48.974;8.462;2022-09-01T05:46:32;22.25;;;18.35;;
31746;SDS011;18319;48.974;8.462;2022-09-01T05:49:01;21.38;;;16.88;;
31746;SDS011;18319;48.974;8.462;2022-09-01T05:51:29;19.08;;;16.42;;
31746;SDS011;18319;48.974;8.462;2022-09-01T05:53:59;20.45;;;16.85;;
31746;SDS011;18319;48.974;8.462;2022-09-01T05:56:27;20.35;;;16.52;;
31746;SDS011;18319;48.974;8.462;2022-09-01T05:58:58;23.48;;;17.75;;
31746;SDS011;18319;48.974;8.462;2022-09-01T06:01:26;20.20;;;16.60;;
31746;SDS011;18319;48.974;8.462;2022-09-01T06:03:57;17.70;;;15.88;;
31746;SDS011;18319;48.974;8.462;2022-09-01T06:06:33;16.85;;;15.15;;
31746;SDS011;18319;48.974;8.462;2022-09-01T06:09:05;16.38;;;14.70;;
31746;SDS011;18319;48.974;8.462;2022-09-01T06:11:33;21.50;;;16.80;;
31746;SDS011;18319;48.974;8.462;2022-09-01T06:14:00;18.30;;;15.73;;
31746;SDS011;18319;48.974;8.462;2022-09-01T06:16:27;16.05;;;14.02;;
31746;SDS011;18319;48.974;8.462;2022-09-01T06:18:55;15.85;;;14.10;;
31746;SDS011;18319;48.974;8.462;2022-09-01T06:21:24;16.45;;;13.70;;
31746;SDS011;18319;48.974;8.462;2022-09-01T06:23:55;16.65;;;14.68;;
31746;SDS011;18319;48.974;8.462;2022-09-01T06:26:24;19.02;;;15.05;;
31746;SDS011;18319;48.974;8.462;2022-09-01T06:28:53;14.43;;;12.95;;
31746;SDS011;18319;48.974;8.462;2022-09-01T06:31:21;14.95;;;13.35;;
31746;SDS011;18319;48.974;8.462;2022-09-01T06:33:50;14.38;;;13.00;;
31746;SDS011;18319;48.974;8.462;2022-09-01T06:36:18;15.52;;;12.35;;
31746;SDS011;18319;48.974;8.462;2022-09-01T06:38:47;14.50;;;12.48;;
31746;SDS011;18319;48.974;8.462;2022-09-01T06:41:16;14.70;;;13.15;;
31746;SDS011;18319;48.974;8.462;2022-09-01T06:43:44;14.38;;;12.88;;
31746;SDS011;18319;48.974;8.462;2022-09-01T06:46:12;15.60;;;13.43;;
31746;SDS011;18319;48.974;8.462;2022-09-01T06:48:39;13.60;;;11.13;;
31746;SDS011;18319;48.974;8.462;2022-09-01T06:51:11;13.40;;;12.15;;
31746;SDS011;18319;48.974;8.462;2022-09-01T06:53:40;13.63;;;11.82;;
31746;SDS011;18319;48.974;8.462;2022-09-01T06:56:08;13.52;;;12.13;;
31746;SDS011;18319;48.974;8.462;2022-09-01T06:58:45;12.88;;;11.48;;
31746;SDS011;18319;48.974;8.462;2022-09-01T07:01:13;12.93;;;11.60;;
31746;SDS011;18319;48.974;8.462;2022-09-01T07:03:42;12.85;;;11.55;;
31746;SDS011;18319;48.974;8.462;2022-09-01T07:06:10;12.18;;;10.98;;
31746;SDS011;18319;48.974;8.462;2022-09-01T07:08:38;12.88;;;11.63;;
31746;SDS011;18319;48.974;8.462;2022-09-01T07:11:06;11.85;;;10.68;;
31746;SDS011;18319;48.974;8.462;2022-09-01T07:13:34;11.80;;;10.05;;
31746;SDS011;18319;48.974;8.462;2022-09-01T07:16:08;11.52;;;10.43;;
31746;SDS011;18319;48.974;8.462;2022-09-01T07:18:46;12.82;;;11.15;;
31746;SDS011;18319;48.974;8.462;2022-09-01T07:21:13;11.27;;;10.18;;
31746;SDS011;18319;48.974;8.462;2022-09-01T07:23:40;11.13;;;10.07;;
31746;SDS011;18319;48.974;8.462;2022-09-01T07:26:08;12.55;;;11.23;;
31746;SDS011;18319;48.974;8.462;2022-09-01T07:28:36;10.55;;;9.57;;
31746;SDS011;18319;48.974;8.462;2022-09-01T07:31:03;11.50;;;10.32;;
31746;SDS011;18319;48.974;8.462;2022-09-01T07:33:34;12.13;;;10.07;;
31746;SDS011;18319;48.974;8.462;2022-09-01T07:36:01;12.63;;;10.68;;
31746;SDS011;18319;48.974;8.462;2022-09-01T07:38:28;10.40;;;9.50;;
31746;SDS011;18319;48.974;8.462;2022-09-01T07:40:55;11.48;;;10.05;;
31746;SDS011;18319;48.974;8.462;2022-09-01T07:43:22;10.20;;;9.23;;
31746;SDS011;18319;48.974;8.462;2022-09-01T07:45:53;9.70;;;8.90;;
31746;SDS011;18319;48.974;8.462;2022-09-01T07:48:23;9.18;;;8.45;;
31746;SDS011;18319;48.974;8.462;2022-09-01T07:50:54;10.15;;;9.15;;
31746;SDS011;18319;48.974;8.462;2022-09-01T07:53:23;9.05;;;8.35;;
31746;SDS011;18319;48.974;8.462;2022-09-01T07:55:53;10.77;;;9.70;;
31746;SDS011;18319;48.974;8.462;2022-09-01T07:58:22;9.40;;;8.52;;
31746;SDS011;18319;48.974;8.462;2022-09-01T08:00:50;9.80;;;8.80;;
31746;SDS011;18319;48.974;8.462;2022-09-01T08:03:20;9.63;;;8.73;;
31746;SDS011;18319;48.974;8.462;2022-09-01T08:05:48;9.10;;;8.30;;
31746;SDS011;18319;48.974;8.462;2022-09-01T08:08:21;9.05;;;8.13;;
31746;SDS011;18319;48.974;8.462;2022-09-01T08:10:47;8.98;;;8.15;;
31746;SDS011;18319;48.974;8.462;2022-09-01T08:13:14;9.10;;;8.32;;
31746;SDS011;18319;48.974;8.462;2022-09-01T08:15:43;9.45;;;8.55;;
31746;SDS011;18319;48.974;8.462;2022-09-01T08:18:10;9.30;;;8.18;;
31746;SDS011;18319;48.974;8.462;2022-09-01T08:20:38;8.63;;;7.95;;
31746;SDS011;18319;48.974;8.462;2022-09-01T08:23:09;7.82;;;7.20;;
31746;SDS011;18319;48.974;8.462;2022-09-01T08:25:39;8.57;;;7.68;;
31746;SDS011;18319;48.974;8.462;2022-09-01T08:28:08;8.88;;;8.18;;
31746;SDS011;18319;48.974;8.462;2022-09-01T08:30:37;8.80;;;7.95;;
31746;SDS011;18319;48.974;8.462;2022-09-01T08:33:07;8.18;;;7.43;;
31746;SDS011;18319;48.974;8.462;2022-09-01T08:35:36;7.95;;;7.35;;
31746;SDS011;18319;48.974;8.462;2022-09-01T08:38:04;9.18;;;8.27;;
31746;SDS011;18319;48.974;8.462;2022-09-01T08:40:30;7.25;;;6.65;;
31746;SDS011;18319;48.974;8.462;2022-09-01T08:43:01;7.90;;;7.20;;
31746;SDS011;18319;48.974;8.462;2022-09-01T08:45:41;6.95;;;6.35;;
31746;SDS011;18319;48.974;8.462;2022-09-01T08:48:15;6.80;;;6.05;;
31746;SDS011;18319;48.974;8.462;2022-09-01T08:50:44;7.75;;;6.97;;
31746;SDS011;18319;48.974;8.462;2022-09-01T08:53:17;6.60;;;5.90;;
31746;SDS011;18319;48.974;8.462;2022-09-01T08:55:54;7.25;;;6.63;;
31746;SDS011;18319;48.974;8.462;2022-09-01T08:58:23;7.30;;;6.68;;
31746;SDS011;18319;48.974;8.462;2022-09-01T09:00:54;6.93;;;6.35;;
31746;SDS011;18319;48.974;8.462;2022-09-01T09:03:26;7.03;;;6.53;;
31746;SDS011;18319;48.974;8.462;2022-09-01T09:06:02;6.40;;;5.90;;
31746;SDS011;18319;48.974;8.462;2022-09-01T09:08:48;5.65;;;5.30;;
31746;SDS011;18319;48.974;8.462;2022-09-01T09:14:16;5.97;;;5.43;;
31746;SDS011;18319;48.974;8.462;2022-09-01T09:16:52;5.88;;;5.35;;
31746;SDS011;18319;48.974;8.462;2022-09-01T09:19:21;4.78;;;4.38;;
31746;SDS011;18319;48.974;8.462;2022-09-01T09:21:51;4.82;;;4.53;;
31746;SDS011;18319;48.974;8.462;2022-09-01T09:24:22;5.13;;;4.72;;
31746;SDS011;18319;48.974;8.462;2022-09-01T09:26:53;4.65;;;4.35;;
31746;SDS011;18319;48.974;8.462;2022-09-01T09:29:24;5.95;;;4.78;;
31746;SDS011;18319;48.974;8.462;2022-09-01T09:32:00;4.95;;;4.60;;
31746;SDS011;18319;48.974;8.462;2022-09-01T09:34:30;4.03;;;3.75;;
31746;SDS011;18319;48.974;8.462;2022-09-01T09:37:00;4.35;;;3.83;;
31746;SDS011;18319;48.974;8.462;2022-09-01T09:39:42;3.58;;;3.38;;
31746;SDS011;18319;48.974;8.462;2022-09-01T09:42:10;3.65;;;3.45;;
31746;SDS011;18319;48.974;8.462;2022-09-01T09:44:42;3.38;;;3.05;;
31746;SDS011;18319;48.974;8.462;2022-09-01T09:50:12;3.30;;;3.10;;
31746;SDS011;18319;48.974;8.462;2022-09-01T09:52:42;4.10;;;3.88;;
31746;SDS011;18319;48.974;8.462;2022-09-01T09:55:17;4.22;;;3.92;;
31746;SDS011;18319;48.974;8.462;2022-09-01T09:57:48;3.90;;;3.70;;
31746;SDS011;18319;48.974;8.462;2022-09-01T10:00:19;3.67;;;3.38;;
31746;SDS011;18319;48.974;8.462;2022-09-01T10:02:51;3.72;;;3.47;;
31746;SDS011;18319;48.974;8.462;2022-09-01T10:05:27;4.00;;;3.78;;
31746;SDS011;18319;48.974;8.462;2022-09-01T10:08:00;3.67;;;3.38;;
31746;SDS011;18319;48.974;8.462;2022-09-01T10:10:29;3.13;;;2.92;;
31746;SDS011;18319;48.974;8.462;2022-09-01T10:13:02;3.83;;;3.63;;
31746;SDS011;18319;48.974;8.462;2022-09-01T10:15:34;3.17;;;2.97;;
31746;SDS011;18319;48.974;8.462;2022-09-01T10:18:03;3.67;;;3.47;;
31746;SDS011;18319;48.974;8.462;2022-09-01T10:20:35;4.32;;;3.95;;
31746;SDS011;18319;48.974;8.462;2022-09-01T10:23:04;3.92;;;3.72;;
31746;SDS011;18319;48.974;8.462;2022-09-01T10:25:32;3.72;;;3.42;;
31746;SDS011;18319;48.974;8.462;2022-09-01T10:28:03;4.50;;;4.10;;
31746;SDS011;18319;48.974;8.462;2022-09-01T10:30:37;5.97;;;3.50;;
31746;SDS011;18319;48.974;8.462;2022-09-01T10:33:07;3.85;;;3.40;;
31746;SDS011;18319;48.974;8.462;2022-09-01T10:35:36;3.47;;;3.17;;
31746;SDS011;18319;48.974;8.462;2022-09-01T10:38:07;3.50;;;3.25;;
31746;SDS011;18319;48.974;8.462;2022-09-01T10:40:37;3.75;;;3.55;;
31746;SDS011;18319;48.974;8.462;2022-09-01T10:49:19;3.95;;;3.63;;
31746;SDS011;18319;48.974;8.462;2022-09-01T10:52:01;3.70;;;3.40;;
31746;SDS011;18319;48.974;8.462;2022-09-01T11:03:34;3.70;;;3.40;;
31746;SDS011;18319;48.974;8.462;2022-09-01T11:09:25;3.88;;;3.47;;
31746;SDS011;18319;48.974;8.462;2022-09-01T11:11:59;4.75;;;4.35;;
31746;SDS011;18319;48.974;8.462;2022-09-01T11:14:50;4.32;;;3.83;;
31746;SDS011;18319;48.974;8.462;2022-09-01T11:17:19;4.10;;;3.72;;
31746;SDS011;18319;48.974;8.462;2022-09-01T11:19:56;4.00;;;3.80;;
31746;SDS011;18319;48.974;8.462;2022-09-01T11:22:33;4.10;;;3.90;;
31746;SDS011;18319;48.974;8.462;2022-09-01T11:25:30;3.80;;;3.60;;
31746;SDS011;18319;48.974;8.462;2022-09-01T11:28:10;4.18;;;3.75;;
31746;SDS011;18319;48.974;8.462;2022-09-01T11:31:12;4.10;;;3.83;;
31746;SDS011;18319;48.974;8.462;2022-09-01T11:34:14;4.20;;;3.78;;
31746;SDS011;18319;48.974;8.462;2022-09-01T11:36:54;3.70;;;3.40;;
31746;SDS011;18319;48.974;8.462;2022-09-01T11:39:29;3.78;;;3.42;;
31746;SDS011;18319;48.974;8.462;2022-09-01T11:42:00;3.50;;;3.20;;
31746;SDS011;18319;48.974;8.462;2022-09-01T11:44:33;3.30;;;3.10;;
31746;SDS011;18319;48.974;8.462;2022-09-01T11:47:06;3.00;;;2.90;;
31746;SDS011;18319;48.974;8.462;2022-09-01T11:49:37;3.38;;;3.17;;
31746;SDS011;18319;48.974;8.462;2022-09-01T11:52:12;3.25;;;3.05;;
31746;SDS011;18319;48.974;8.462;2022-09-01T11:54:42;3.17;;;2.97;;
31746;SDS011;18319;48.974;8.462;2022-09-01T11:57:20;4.05;;;3.75;;
31746;SDS011;18319;48.974;8.462;2022-09-01T11:59:52;3.25;;;3.05;;
31746;SDS011;18319;48.974;8.462;2022-09-01T12:02:21;3.03;;;2.92;;
31746;SDS011;18319;48.974;8.462;2022-09-01T12:04:49;3.63;;;3.33;;
31746;SDS011;18319;48.974;8.462;2022-09-01T12:07:26;3.30;;;3.05;;
31746;SDS011;18319;48.974;8.462;2022-09-01T12:09:58;3.13;;;2.92;;
31746;SDS011;18319;48.974;8.462;2022-09-01T12:12:28;3.10;;;2.80;;
31746;SDS011;18319;48.974;8.462;2022-09-01T12:14:57;4.03;;;3.45;;
31746;SDS011;18319;48.974;8.462;2022-09-01T12:17:24;3.17;;;2.88;;
31746;SDS011;18319;48.974;8.462;2022-09-01T12:19:51;3.72;;;3.47;;
31746;SDS011;18319;48.974;8.462;2022-09-01T12:22:18;3.22;;;2.92;;
31746;SDS011;18319;48.974;8.462;2022-09-01T12:24:47;3.85;;;3.53;;
31746;SDS011;18319;48.974;8.462;2022-09-01T12:27:16;2.75;;;2.65;;
31746;SDS011;18319;48.974;8.462;2022-09-01T12:29:45;3.30;;;3.10;;
31746;SDS011;18319;48.974;8.462;2022-09-01T12:32:12;4.00;;;3.30;;
31746;SDS011;18319;48.974;8.462;2022-09-01T12:34:41;3.42;;;3.13;;
31746;SDS011;18319;48.974;8.462;2022-09-01T12:37:17;3.15;;;2.95;;
31746;SDS011;18319;48.974;8.462;2022-09-01T12:39:47;3.22;;;3.03;;
31746;SDS011;18319;48.974;8.462;2022-09-01T12:42:22;3.33;;;3.13;;
31746;SDS011;18319;48.974;8.462;2022-09-01T12:44:54;3.40;;;3.20;;
31746;SDS011;18319;48.974;8.462;2022-09-01T12:50:34;3.13;;;2.90;;
31746;SDS011;18319;48.974;8.462;2022-09-01T12:53:12;3.78;;;3.13;;
31746;SDS011;18319;48.974;8.462;2022-09-01T12:55:52;3.08;;;2.88;;
31746;SDS011;18319;48.974;8.462;2022-09-01T12:58:25;2.80;;;2.60;;
31746;SDS011;18319;48.974;8.462;2022-09-01T13:00:57;2.60;;;2.50;;
31746;SDS011;18319;48.974;8.462;2022-09-01T13:03:26;2.97;;;2.78;;
31746;SDS011;18319;48.974;8.462;2022-09-01T13:05:54;2.75;;;2.55;;
31746;SDS011;18319;48.974;8.462;2022-09-01T13:08:24;3.22;;;3.03;;
31746;SDS011;18319;48.974;8.462;2022-09-01T13:10:53;3.22;;;3.03;;
31746;SDS011;18319;48.974;8.462;2022-09-01T13:13:23;3.40;;;3.20;;
31746;SDS011;18319;48.974;8.462;2022-09-01T13:15:52;3.25;;;3.05;;
31746;SDS011;18319;48.974;8.462;2022-09-01T13:18:23;2.75;;;2.55;;
31746;SDS011;18319;48.974;8.462;2022-09-01T13:20:50;3.20;;;2.83;;
31746;SDS011;18319;48.974;8.462;2022-09-01T13:23:19;2.17;;;2.08;;
31746;SDS011;18319;48.974;8.462;2022-09-01T13:25:46;2.67;;;2.58;;
31746;SDS011;18319;48.974;8.462;2022-09-01T13:28:14;2.08;;;1.98;;
31746;SDS011;18319;48.974;8.462;2022-09-01T13:30:42;2.47;;;2.38;;
31746;SDS011;18319;48.974;8.462;2022-09-01T13:33:13;3.10;;;2.90;;
31746;SDS011;18319;48.974;8.462;2022-09-01T13:35:42;2.33;;;2.22;;
31746;SDS011;18319;48.974;8.462;2022-09-01T13:38:11;2.42;;;2.33;;
31746;SDS011;18319;48.974;8.462;2022-09-01T13:40:40;2.30;;;2.20;;
31746;SDS011;18319;48.974;8.462;2022-09-01T13:43:07;2.10;;;2.00;;
31746;SDS011;18319;48.974;8.462;2022-09-01T13:45:35;2.60;;;2.40;;
31746;SDS011;18319;48.974;8.462;2022-09-01T13:48:05;2.00;;;1.90;;
31746;SDS011;18319;48.974;8.462;2022-09-01T13:50:32;2.38;;;2.28;;
31746;SDS011;18319;48.974;8.462;2022-09-01T13:53:02;2.33;;;2.22;;
31746;SDS011;18319;48.974;8.462;2022-09-01T13:55:30;2.40;;;2.20;;
31746;SDS011;18319;48.974;8.462;2022-09-01T13:57:59;2.28;;;2.17;;
31746;SDS011;18319;48.974;8.462;2022-09-01T14:00:28;2.45;;;2.35;;
31746;SDS011;18319;48.974;8.462;2022-09-01T14:02:58;4.28;;;2.10;;
31746;SDS011;18319;48.974;8.462;2022-09-01T14:05:28;2.50;;;2.30;;
31746;SDS011;18319;48.974;8.462;2022-09-01T14:07:57;2.22;;;2.00;;
31746;SDS011;18319;48.974;8.462;2022-09-01T14:10:28;2.10;;;2.00;;
31746;SDS011;18319;48.974;8.462;2022-09-01T14:12:56;2.72;;;2.63;;
31746;SDS011;18319;48.974;8.462;2022-09-01T14:15:25;2.42;;;2.22;;
31746;SDS011;18319;48.974;8.462;2022-09-01T14:17:53;1.98;;;1.88;;
31746;SDS011;18319;48.974;8.462;2022-09-01T14:20:22;1.90;;;1.80;;
31746;SDS011;18319;48.974;8.462;2022-09-01T14:22:51;1.92;;;1.83;;
31746;SDS011;18319;48.974;8.462;2022-09-01T14:25:20;2.13;;;1.98;;
31746;SDS011;18319;48.974;8.462;2022-09-01T14:27:48;1.80;;;1.70;;
31746;SDS011;18319;48.974;8.462;2022-09-01T14:30:18;2.08;;;1.70;;
31746;SDS011;18319;48.974;8.462;2022-09-01T14:32:46;2.45;;;2.35;;
31746;SDS011;18319;48.974;8.462;2022-09-01T14:35:14;2.00;;;1.90;;
31746;SDS011;18319;48.974;8.462;2022-09-01T14:37:42;1.90;;;1.80;;
31746;SDS011;18319;48.974;8.462;2022-09-01T14:40:09;4.53;;;2.40;;
31746;SDS011;18319;48.974;8.462;2022-09-01T14:42:39;2.28;;;2.17;;
31746;SDS011;18319;48.974;8.462;2022-09-01T14:45:12;2.55;;;2.25;;
31746;SDS011;18319;48.974;8.462;2022-09-01T14:47:42;2.72;;;2.10;;
31746;SDS011;18319;48.974;8.462;2022-09-01T14:50:09;2.78;;;2.67;;
31746;SDS011;18319;48.974;8.462;2022-09-01T14:52:37;1.98;;;1.88;;
31746;SDS011;18319;48.974;8.462;2022-09-01T14:55:04;1.95;;;1.85;;
31746;SDS011;18319;48.974;8.462;2022-09-01T14:57:31;2.40;;;1.98;;
31746;SDS011;18319;48.974;8.462;2022-09-01T14:59:59;1.75;;;1.65;;
31746;SDS011;18319;48.974;8.462;2022-09-01T15:02:28;1.80;;;1.70;;
31746;SDS011;18319;48.974;8.462;2022-09-01T15:04:58;2.45;;;1.83;;
31746;SDS011;18319;48.974;8.462;2022-09-01T15:07:25;1.73;;;1.63;;
31746;SDS011;18319;48.974;8.462;2022-09-01T15:09:53;2.03;;;1.92;;
31746;SDS011;18319;48.974;8.462;2022-09-01T15:12:21;2.22;;;2.03;;
31746;SDS011;18319;48.974;8.462;2022-09-01T15:14:48;1.98;;;1.88;;
31746;SDS011;18319;48.974;8.462;2022-09-01T15:17:16;2.28;;;2.08;;
31746;SDS011;18319;48.974;8.462;2022-09-01T15:19:44;4.28;;;2.05;;